Fenwood, Wisconsin
Current Conditions -  °F | °C
As of 9:50 AM on Friday 31 Oct 2014 (Local Time) from KCWA Reporting Station
Overcast Overcast  
Wind Chill: 17°   Ceiling: 3100
Heat Index: 30°   Visibility: 10mi
Dew Point: 23°   Wind: 22mph
Humidity: 75%   Direction: 350°N
Pressure: 30.36"   Gusts: 28mph
Location:  44.8973°N, 90.0113°W
Report Text: KCWA 311450Z 35019G24KT 10SM OVC031 M01/M05 A3036
Loading
Personal Weather Stations






























Interactive Weather Map
Tropical Storm Tracking
New forecast layout! Learn more

10-Day Weather Forecast

Advertisements
Track Severe Weather on mobile